Terminal Aerodrome Forecast
Issued by NWS

Home | Current Version | Previous Version | Graphics & Text | Print | Product List | Glossary On
Versions: 1 2 3 4 5 6 7 8 9 10 11 12 13 14 15 16 17 18
000
FTUS43 KICT 301130
TAFSLN
TAF
KSLN 301130Z 3012/3112 VRB06KT P6SM BKN250
     FM302000 17009KT P6SM BKN100
     FM310400 17009KT P6SM -RA BKN030 OVC050
     FM310900 17008KT 5SM -RASN SCT025 BKN050=

USA.gov is the U.S. government's official web portal to all federal, state and local government web resources and services.